Time;durP1;ratioP1;P1;durP2;ratioP2;P2;SDS_P1;SDS_P2;PMS_P1;PMS_P2;Temp;Humidity;BMP_temperature;BMP_pressure;BME280_temperature;BME280_humidity;BME280_pressure;Samples;Min_cycle;Max_cycle;Signal;HPM_P1;HPM_P2
2023/11/05 00:01:23;;;;;;;2.28;0.20;;;11.70;99.90;;;;;;4999808;28;20425;-86
2023/11/05 00:03:49;;;;;;;0.80;0.17;;;11.70;99.90;;;;;;4999604;28;20420;-87
2023/11/05 00:06:15;;;;;;;0.25;0.20;;;11.70;99.90;;;;;;4999245;28;20542;-85
2023/11/05 00:08:40;;;;;;;1.52;0.30;;;11.70;99.90;;;;;;5017197;28;20101;-85
2023/11/05 00:11:06;;;;;;;1.27;0.38;;;11.80;99.90;;;;;;4999082;28;20402;-86
2023/11/05 00:13:32;;;;;;;1.50;0.20;;;11.80;99.90;;;;;;4999873;28;20034;-86
2023/11/05 00:15:57;;;;;;;0.85;0.20;;;11.80;99.90;;;;;;4999233;28;20081;-87
2023/11/05 00:18:23;;;;;;;3.75;0.38;;;11.80;99.90;;;;;;4999499;28;20068;-87
2023/11/05 00:20:49;;;;;;;1.38;0.20;;;11.80;99.90;;;;;;4999636;28;20057;-87
2023/11/05 00:23:15;;;;;;;1.92;0.30;;;11.90;99.90;;;;;;4999164;28;20485;-87
2023/11/05 00:25:40;;;;;;;1.80;0.20;;;11.90;99.90;;;;;;4999385;28;20383;-87
2023/11/05 00:28:06;;;;;;;0.35;0.10;;;11.90;99.90;;;;;;4999052;28;20030;-88
2023/11/05 00:30:32;;;;;;;0.13;0.10;;;12.00;99.90;;;;;;4999090;28;20069;-87
2023/11/05 00:32:57;;;;;;;0.77;0.25;;;12.00;99.90;;;;;;4999359;28;20422;-88
2023/11/05 00:35:23;;;;;;;2.25;0.45;;;12.00;99.90;;;;;;4999615;28;20026;-88
2023/11/05 00:37:49;;;;;;;1.75;0.32;;;12.00;99.90;;;;;;5016589;28;20036;-87
2023/11/05 00:40:14;;;;;;;2.72;0.30;;;12.00;99.90;;;;;;4998564;28;20036;-87
2023/11/05 00:42:40;;;;;;;2.30;0.30;;;12.00;99.90;;;;;;4999227;28;20038;-88
2023/11/05 00:45:07;;;;;;;2.53;0.30;;;12.00;99.90;;;;;;4999226;28;20050;-88
2023/11/05 00:47:33;;;;;;;1.83;0.20;;;12.00;99.90;;;;;;4999281;28;20048;-88
2023/11/05 00:49:59;;;;;;;2.35;0.30;;;12.00;99.90;;;;;;4998629;28;20037;-90
2023/11/05 00:52:25;;;;;;;2.28;0.30;;;12.10;99.90;;;;;;4999224;28;20021;-88
2023/11/05 00:54:50;;;;;;;1.27;0.28;;;12.20;99.90;;;;;;4998989;28;20050;-90
2023/11/05 00:57:17;;;;;;;0.60;0.20;;;12.20;99.90;;;;;;4998898;28;20368;-87
2023/11/05 00:59:43;;;;;;;4.90;0.35;;;12.30;99.90;;;;;;4998643;28;20033;-87
2023/11/05 01:02:08;;;;;;;3.75;0.20;;;12.40;99.90;;;;;;5015566;28;20026;-87
2023/11/05 01:04:34;;;;;;;1.40;0.20;;;12.40;99.90;;;;;;5016123;28;20109;-88
2023/11/05 01:07:00;;;;;;;0.30;0.10;;;12.50;99.90;;;;;;4998414;28;20115;-88
2023/11/05 01:09:26;;;;;;;1.88;0.20;;;12.50;99.90;;;;;;4998754;28;20114;-88
2023/11/05 01:11:51;;;;;;;1.88;0.40;;;12.60;99.90;;;;;;5015838;28;20073;-89
2023/11/05 01:14:17;;;;;;;2.35;0.40;;;12.60;99.90;;;;;;5015256;28;20041;-89
2023/11/05 01:16:43;;;;;;;0.70;0.32;;;12.60;99.90;;;;;;4998264;28;20076;-88
2023/11/05 01:19:08;;;;;;;2.97;0.38;;;12.70;99.90;;;;;;4997971;28;20563;-88
2023/11/05 01:21:34;;;;;;;1.30;0.15;;;12.70;99.90;;;;;;5015648;28;20476;-88
2023/11/05 01:24:00;;;;;;;3.38;0.20;;;12.80;99.90;;;;;;5015653;28;20029;-88
2023/11/05 01:26:26;;;;;;;1.30;0.30;;;12.70;99.90;;;;;;4998233;28;20437;-88
2023/11/05 01:28:52;;;;;;;2.00;0.20;;;12.80;99.90;;;;;;4998220;28;20030;-88
2023/11/05 01:31:18;;;;;;;0.73;0.20;;;12.90;99.90;;;;;;4997671;28;20148;-88
2023/11/05 01:33:43;;;;;;;3.70;0.50;;;12.90;99.90;;;;;;4998180;28;20022;-88
2023/11/05 01:36:09;;;;;;;2.03;0.30;;;13.00;99.90;;;;;;4997682;28;20021;-89
2023/11/05 01:38:35;;;;;;;1.73;0.45;;;13.00;99.90;;;;;;4998054;28;20030;-89
2023/11/05 01:41:01;;;;;;;3.30;0.47;;;13.00;99.90;;;;;;4997921;28;20037;-89
2023/11/05 01:43:26;;;;;;;1.45;0.30;;;13.10;99.90;;;;;;4997965;28;20026;-89
2023/11/05 01:45:55;;;;;;;1.15;0.35;;;13.00;99.90;;;;;;4998492;28;20026;-89
2023/11/05 01:48:20;;;;;;;2.20;0.32;;;13.00;99.90;;;;;;4997706;28;20029;-89
2023/11/05 01:50:47;;;;;;;0.88;0.10;;;13.10;99.90;;;;;;4998312;28;20029;-89
2023/11/05 01:53:13;;;;;;;25.08;9.23;;;13.10;99.90;;;;;;4997874;28;20030;-88
2023/11/05 01:55:39;;;;;;;24.42;9.15;;;13.10;99.90;;;;;;4998248;28;20061;-89
2023/11/05 01:58:05;;;;;;;3.65;1.25;;;13.10;99.90;;;;;;4997572;28;20467;-89
2023/11/05 02:00:32;;;;;;;4.05;0.70;;;13.10;99.90;;;;;;4997516;28;20029;-89
2023/11/05 02:02:57;;;;;;;3.28;0.68;;;13.10;99.90;;;;;;4997842;28;20383;-89
2023/11/05 02:05:23;;;;;;;1.98;0.30;;;13.10;99.90;;;;;;4997613;28;20029;-89
2023/11/05 02:07:49;;;;;;;2.67;0.30;;;13.10;99.90;;;;;;4998316;28;20061;-90
2023/11/05 02:10:15;;;;;;;3.22;0.50;;;13.10;99.90;;;;;;4997740;28;20026;-90
2023/11/05 02:12:55;;;;;;;1.05;0.30;;;13.10;99.90;;;;;;4998109;28;20037;-89
2023/11/05 02:15:21;;;;;;;4.38;0.40;;;13.10;99.90;;;;;;4997597;28;20168;-88
2023/11/05 02:17:46;;;;;;;1.02;0.30;;;13.00;99.90;;;;;;4997529;28;20064;-89
2023/11/05 02:20:12;;;;;;;2.70;0.40;;;13.00;99.90;;;;;;5014245;28;20105;-89
2023/11/05 02:22:40;;;;;;;1.65;0.40;;;13.00;99.90;;;;;;4997641;28;20097;-89
2023/11/05 02:25:06;;;;;;;1.83;0.63;;;12.90;99.90;;;;;;4997342;28;20095;-88
2023/11/05 02:27:32;;;;;;;4.25;0.63;;;12.90;99.90;;;;;;4997534;28;20026;-89
2023/11/05 02:29:58;;;;;;;3.40;0.55;;;12.90;99.90;;;;;;4997639;28;20026;-89
2023/11/05 02:32:24;;;;;;;3.42;0.30;;;12.90;99.90;;;;;;4996382;28;20475;-89
2023/11/05 02:34:49;;;;;;;3.47;0.38;;;12.90;99.90;;;;;;4997748;28;20104;-90
2023/11/05 02:37:15;;;;;;;6.82;0.90;;;12.90;99.90;;;;;;4997651;28;20054;-89
2023/11/05 02:39:41;;;;;;;5.10;0.40;;;12.80;99.90;;;;;;4997910;28;20030;-89
2023/11/05 02:42:07;;;;;;;1.52;0.40;;;12.80;99.90;;;;;;4997814;28;20046;-89
2023/11/05 02:44:36;;;;;;;2.88;0.40;;;12.80;99.90;;;;;;4998686;28;20072;-90
2023/11/05 02:47:02;;;;;;;3.85;0.40;;;12.80;99.90;;;;;;5002037;28;20022;-89
2023/11/05 02:49:27;;;;;;;3.70;0.40;;;12.80;99.90;;;;;;5002508;28;20056;-89
2023/11/05 02:51:53;;;;;;;7.78;1.35;;;12.80;99.90;;;;;;5001413;28;20116;-88
2023/11/05 02:54:19;;;;;;;3.08;0.25;;;12.80;99.90;;;;;;5000940;28;20026;-89
2023/11/05 02:56:45;;;;;;;4.50;0.38;;;12.80;99.90;;;;;;5015912;28;20033;-89
2023/11/05 02:59:16;;;;;;;5.60;0.43;;;12.80;99.90;;;;;;4996843;28;20030;-89
2023/11/05 03:01:41;;;;;;;4.17;0.50;;;12.80;99.90;;;;;;4997844;28;20030;-89
2023/11/05 03:04:07;;;;;;;5.47;0.63;;;12.80;99.90;;;;;;4996704;28;20048;-89
2023/11/05 03:06:33;;;;;;;3.28;0.60;;;12.90;99.90;;;;;;5014467;28;20485;-89
2023/11/05 03:08:58;;;;;;;1.92;0.50;;;12.90;99.90;;;;;;4996998;28;20037;-89
2023/11/05 03:11:24;;;;;;;4.13;0.40;;;13.00;99.90;;;;;;4996181;28;20029;-90
2023/11/05 03:13:49;;;;;;;2.03;0.30;;;13.00;99.90;;;;;;4996999;28;20049;-89
2023/11/05 03:16:15;;;;;;;1.38;0.50;;;13.00;99.90;;;;;;4996578;28;20026;-89
2023/11/05 03:18:41;;;;;;;4.38;1.02;;;13.00;99.90;;;;;;4996790;28;20356;-89
2023/11/05 03:21:07;;;;;;;3.45;0.82;;;13.10;99.90;;;;;;4997185;28;20038;-89
2023/11/05 03:23:33;;;;;;;6.07;0.40;;;13.10;99.90;;;;;;4996762;28;20026;-90
2023/11/05 03:25:58;;;;;;;1.77;0.50;;;13.10;99.90;;;;;;5014038;28;20029;-89
2023/11/05 03:28:24;;;;;;;6.95;1.10;;;13.30;99.90;;;;;;4996391;28;20036;-89
2023/11/05 03:30:50;;;;;;;1.08;0.28;;;13.30;99.90;;;;;;4996908;28;20125;-88
2023/11/05 03:33:15;;;;;;;5.07;0.73;;;13.30;99.90;;;;;;5000099;28;20030;-88
2023/11/05 03:35:41;;;;;;;2.33;0.20;;;13.40;99.90;;;;;;5000448;28;20030;-88
2023/11/05 03:38:06;;;;;;;2.10;0.35;;;13.40;99.90;;;;;;5000238;28;20124;-89
2023/11/05 03:40:32;;;;;;;5.03;0.50;;;13.50;99.90;;;;;;5000022;28;20462;-89
2023/11/05 03:42:58;;;;;;;3.17;0.40;;;13.50;99.90;;;;;;5017916;28;20041;-89
2023/11/05 03:45:23;;;;;;;4.00;0.60;;;13.60;99.90;;;;;;5017450;28;20025;-89
2023/11/05 03:47:49;;;;;;;3.70;0.38;;;13.60;99.90;;;;;;5000099;28;20036;-89
2023/11/05 03:50:15;;;;;;;3.72;0.50;;;13.70;99.90;;;;;;4999535;28;20028;-89
2023/11/05 03:52:40;;;;;;;1.35;0.30;;;13.70;99.90;;;;;;5000234;28;20029;-89
2023/11/05 03:55:06;;;;;;;6.70;0.68;;;13.70;99.90;;;;;;5000162;28;20458;-89
2023/11/05 03:57:32;;;;;;;3.50;0.60;;;13.70;99.90;;;;;;4999547;28;20033;-89
2023/11/05 03:59:58;;;;;;;3.60;0.40;;;13.70;99.90;;;;;;4999796;28;20030;-89
2023/11/05 04:02:23;;;;;;;1.23;0.22;;;13.70;99.90;;;;;;4999388;28;20057;-88
2023/11/05 04:04:51;;;;;;;1.23;0.20;;;13.70;99.90;;;;;;5000172;28;20107;-89
2023/11/05 04:07:16;;;;;;;3.90;0.40;;;13.70;99.90;;;;;;5018631;28;20168;-87
2023/11/05 04:09:42;;;;;;;3.83;1.35;;;13.70;99.90;;;;;;5004777;28;20033;-87
2023/11/05 04:12:08;;;;;;;2.72;0.45;;;13.70;99.90;;;;;;5001644;28;20030;-88
2023/11/05 04:14:33;;;;;;;1.75;0.45;;;13.70;99.90;;;;;;5001699;28;20045;-88
2023/11/05 04:16:59;;;;;;;1.95;0.25;;;13.70;99.90;;;;;;5004077;28;20037;-89
2023/11/05 04:19:25;;;;;;;1.85;0.32;;;13.70;99.90;;;;;;5005242;28;20034;-89
2023/11/05 04:21:50;;;;;;;2.83;0.20;;;13.70;99.90;;;;;;5007862;28;20026;-89
2023/11/05 04:24:16;;;;;;;2.03;0.10;;;13.70;99.90;;;;;;5024067;28;20398;-88
2023/11/05 04:26:42;;;;;;;2.50;0.25;;;13.70;99.90;;;;;;5007049;28;20030;-88
2023/11/05 04:29:07;;;;;;;1.77;0.32;;;13.70;99.90;;;;;;5007164;28;20088;-88
2023/11/05 04:31:33;;;;;;;1.08;0.20;;;13.60;99.90;;;;;;5006247;28;20054;-88
2023/11/05 04:34:01;;;;;;;0.40;0.10;;;13.70;99.90;;;;;;5023472;28;20076;-88
2023/11/05 04:36:27;;;;;;;3.05;0.10;;;13.60;99.90;;;;;;5005413;28;20471;-88
2023/11/05 04:38:52;;;;;;;1.48;0.30;;;13.70;99.90;;;;;;5004892;28;20037;-88
2023/11/05 04:41:22;;;;;;;2.03;0.30;;;13.60;99.90;;;;;;5005430;28;20046;-88
2023/11/05 04:43:47;;;;;;;4.57;0.30;;;13.60;99.90;;;;;;5020394;28;20056;-88
2023/11/05 04:46:13;;;;;;;1.85;0.20;;;13.60;99.90;;;;;;5002815;28;20375;-88
2023/11/05 04:48:38;;;;;;;1.05;0.10;;;13.50;99.90;;;;;;5019354;28;20032;-89
2023/11/05 04:51:09;;;;;;;1.48;0.17;;;13.40;99.90;;;;;;5001541;28;20533;-88
2023/11/05 04:53:34;;;;;;;1.20;0.17;;;13.40;99.90;;;;;;5001489;28;20026;-87
2023/11/05 04:56:00;;;;;;;2.83;0.40;;;13.30;99.90;;;;;;5000898;28;20080;-88
2023/11/05 04:58:26;;;;;;;1.33;0.30;;;13.20;99.90;;;;;;5000108;28;20035;-89
2023/11/05 05:00:52;;;;;;;2.25;0.38;;;13.10;99.90;;;;;;5000295;28;20486;-89
2023/11/05 05:03:18;;;;;;;1.15;0.10;;;13.10;99.90;;;;;;4999801;28;20022;-88
2023/11/05 05:05:44;;;;;;;2.08;0.10;;;13.00;99.90;;;;;;4999720;28;20028;-88
2023/11/05 05:08:10;;;;;;;1.33;0.20;;;13.00;99.90;;;;;;5016602;28;20029;-89
2023/11/05 05:10:38;;;;;;;1.30;0.20;;;12.90;99.90;;;;;;4998269;28;20072;-89
2023/11/05 05:13:04;;;;;;;1.75;0.30;;;12.90;99.90;;;;;;5016734;28;20030;-88
2023/11/05 05:15:29;;;;;;;1.55;0.45;;;12.90;99.90;;;;;;4998591;28;20076;-89
2023/11/05 05:17:55;;;;;;;1.83;0.73;;;13.00;99.90;;;;;;5015964;28;20030;-89
2023/11/05 05:20:20;;;;;;;4.25;0.40;;;13.00;99.90;;;;;;4998299;28;20469;-88
2023/11/05 05:22:46;;;;;;;1.27;0.22;;;12.90;99.90;;;;;;4998772;28;20117;-88
2023/11/05 05:25:13;;;;;;;2.45;0.22;;;13.00;99.90;;;;;;4998627;28;20053;-89
2023/11/05 05:27:39;;;;;;;2.42;0.47;;;12.90;99.90;;;;;;4998364;28;20449;-89
2023/11/05 05:30:05;;;;;;;1.13;0.20;;;12.90;99.90;;;;;;4998625;28;20060;-88
2023/11/05 05:32:31;;;;;;;1.23;0.15;;;13.00;99.90;;;;;;5015529;28;20095;-89
2023/11/05 05:34:57;;;;;;;1.90;0.30;;;12.90;99.90;;;;;;4999018;28;20026;-88
2023/11/05 05:37:22;;;;;;;1.25;0.20;;;12.90;99.90;;;;;;4998060;28;20041;-89
2023/11/05 05:39:48;;;;;;;0.93;0.20;;;12.90;99.90;;;;;;4998461;28;20033;-89
2023/11/05 05:42:14;;;;;;;0.63;0.20;;;12.90;99.90;;;;;;4998471;28;20034;-89
2023/11/05 05:44:39;;;;;;;2.78;0.20;;;12.90;99.90;;;;;;5015045;28;20114;-89
2023/11/05 05:47:06;;;;;;;4.18;0.50;;;12.90;99.90;;;;;;4998222;28;20022;-88
2023/11/05 05:49:31;;;;;;;1.27;0.28;;;12.80;99.90;;;;;;4997618;28;20124;-89
2023/11/05 05:51:58;;;;;;;1.13;0.10;;;12.70;99.90;;;;;;4998187;28;20058;-88
2023/11/05 05:54:24;;;;;;;2.53;0.15;;;12.70;99.90;;;;;;4996999;28;20037;-89
2023/11/05 05:56:50;;;;;;;1.52;0.20;;;12.70;99.90;;;;;;4998184;28;20055;-88
2023/11/05 05:59:15;;;;;;;2.88;0.30;;;12.60;99.90;;;;;;4998130;28;20029;-88
2023/11/05 06:01:41;;;;;;;1.08;0.10;;;12.50;99.90;;;;;;4997971;28;20471;-88
2023/11/05 06:04:07;;;;;;;1.45;0.20;;;12.50;99.90;;;;;;4998064;28;20033;-88
2023/11/05 06:06:33;;;;;;;2.38;0.30;;;12.50;99.90;;;;;;4997616;28;20026;-88
2023/11/05 06:08:59;;;;;;;2.28;0.20;;;12.50;99.90;;;;;;4997763;28;20038;-88
2023/11/05 06:11:25;;;;;;;2.03;0.15;;;12.50;99.90;;;;;;4997435;28;20049;-89
2023/11/05 06:13:50;;;;;;;1.92;0.15;;;12.40;99.90;;;;;;4997707;28;20477;-89
2023/11/05 06:16:16;;;;;;;1.00;0.20;;;12.40;99.90;;;;;;4997788;28;20125;-89
2023/11/05 06:18:42;;;;;;;0.50;0.20;;;12.40;99.90;;;;;;4997270;28;20037;-89
2023/11/05 06:21:07;;;;;;;1.58;0.15;;;12.40;99.90;;;;;;4997895;28;20072;-88
2023/11/05 06:23:33;;;;;;;1.55;0.10;;;12.40;99.90;;;;;;5014616;28;20057;-88
2023/11/05 06:25:58;;;;;;;0.25;0.10;;;12.30;99.90;;;;;;4997756;28;20065;-87
2023/11/05 06:28:24;;;;;;;1.63;0.47;;;12.30;99.90;;;;;;4996723;28;20486;-88
2023/11/05 06:30:50;;;;;;;1.02;0.10;;;12.30;99.90;;;;;;5014340;28;20104;-88
2023/11/05 06:33:15;;;;;;;1.05;0.13;;;12.20;99.90;;;;;;5014791;28;20026;-88
2023/11/05 06:35:42;;;;;;;0.50;0.10;;;12.20;99.90;;;;;;4997040;28;20379;-88
2023/11/05 06:38:08;;;;;;;1.35;0.10;;;12.10;99.90;;;;;;4997806;28;20037;-88
2023/11/05 06:40:34;;;;;;;2.80;0.10;;;12.10;99.90;;;;;;4996946;28;20037;-88
2023/11/05 06:43:00;;;;;;;0.75;0.10;;;12.00;99.90;;;;;;4997122;28;20034;-88
2023/11/05 06:45:26;;;;;;;1.17;0.20;;;12.00;99.90;;;;;;4996835;28;20032;-88
2023/11/05 06:47:51;;;;;;;1.20;0.20;;;12.00;99.90;;;;;;4997622;28;20022;-88
2023/11/05 06:50:17;;;;;;;0.20;0.10;;;12.00;99.90;;;;;;4997336;28;20022;-88
2023/11/05 06:52:43;;;;;;;0.75;0.15;;;12.00;99.90;;;;;;4996918;28;20387;-87
2023/11/05 06:55:08;;;;;;;1.65;0.20;;;11.90;99.90;;;;;;4997112;28;20516;-88
2023/11/05 06:57:35;;;;;;;3.00;0.38;;;11.90;99.90;;;;;;4996706;28;20049;-87
2023/11/05 07:00:06;;;;;;;4.15;0.50;;;11.90;99.90;;;;;;4996925;28;20030;-88
2023/11/05 07:02:34;;;;;;;0.77;0.30;;;11.80;99.90;;;;;;4996651;28;20030;-88
2023/11/05 07:05:04;;;;;;;0.28;0.10;;;11.80;99.90;;;;;;4997321;28;20037;-88
2023/11/05 07:07:32;;;;;;;1.98;0.38;;;11.80;99.90;;;;;;4999530;28;20030;-87
2023/11/05 07:10:00;;;;;;;0.85;0.10;;;11.70;99.90;;;;;;5001046;28;20459;-87
2023/11/05 07:12:25;;;;;;;0.40;0.20;;;11.70;99.90;;;;;;5000528;28;20037;-87
2023/11/05 07:14:51;;;;;;;0.98;0.13;;;11.70;99.90;;;;;;5001153;28;20459;-88
2023/11/05 07:17:17;;;;;;;3.08;0.38;;;11.70;99.90;;;;;;5001193;28;20022;-88
2023/11/05 07:19:42;;;;;;;1.40;0.20;;;11.70;99.90;;;;;;5017537;28;20049;-87
2023/11/05 07:22:11;;;;;;;1.98;0.35;;;11.70;99.90;;;;;;5000864;28;20259;-87
2023/11/05 07:24:37;;;;;;;1.25;0.10;;;11.60;99.90;;;;;;5017973;28;20072;-88
2023/11/05 07:27:03;;;;;;;0.73;0.30;;;11.60;99.90;;;;;;5000998;28;20029;-88
2023/11/05 07:29:30;;;;;;;0.22;0.17;;;11.60;99.90;;;;;;5000204;28;20034;-87
2023/11/05 07:31:56;;;;;;;1.30;0.32;;;11.60;99.90;;;;;;4997275;28;20050;-88
2023/11/05 07:34:22;;;;;;;2.33;0.20;;;11.60;99.90;;;;;;4997203;28;20026;-87
2023/11/05 07:36:48;;;;;;;0.85;0.17;;;11.70;99.90;;;;;;4997172;28;20027;-88
2023/11/05 07:39:13;;;;;;;0.95;0.10;;;11.70;99.90;;;;;;4997395;28;20368;-88
2023/11/05 07:41:39;;;;;;;0.85;0.22;;;11.70;99.90;;;;;;4996653;28;20042;-88
2023/11/05 07:44:05;;;;;;;0.43;0.10;;;11.70;99.90;;;;;;4997057;28;20030;-88
2023/11/05 07:46:32;;;;;;;0.40;0.20;;;11.80;99.90;;;;;;4997715;28;20035;-89
2023/11/05 07:48:58;;;;;;;0.22;0.15;;;11.80;99.90;;;;;;4997431;28;20181;-89
2023/11/05 07:51:24;;;;;;;3.00;0.50;;;11.80;99.90;;;;;;4997180;28;20026;-88
2023/11/05 07:53:49;;;;;;;1.75;0.20;;;11.80;99.90;;;;;;4997029;28;20108;-90
2023/11/05 07:56:16;;;;;;;0.10;0.10;;;11.80;99.90;;;;;;4998143;28;20098;-90
2023/11/05 07:58:42;;;;;;;1.13;0.10;;;11.80;99.90;;;;;;4997353;28;20027;-90
2023/11/05 08:01:08;;;;;;;0.25;0.10;;;11.80;99.90;;;;;;4997138;28;20160;-89
2023/11/05 08:03:33;;;;;;;0.50;0.10;;;11.80;99.90;;;;;;4996707;28;20031;-90
2023/11/05 08:05:59;;;;;;;2.13;0.10;;;11.80;99.90;;;;;;4997143;28;20061;-89
2023/11/05 08:08:27;;;;;;;0.20;0.10;;;11.80;99.90;;;;;;4996224;28;20546;-90
2023/11/05 08:10:52;;;;;;;0.30;0.17;;;11.80;99.90;;;;;;4996636;28;20455;-90
2023/11/05 08:13:18;;;;;;;1.27;0.20;;;11.80;99.90;;;;;;4997516;28;20037;-89
2023/11/05 08:15:44;;;;;;;0.88;0.10;;;11.70;99.90;;;;;;4996621;28;20034;-89
2023/11/05 08:18:09;;;;;;;1.80;0.20;;;11.80;99.90;;;;;;4995459;28;20509;-90
2023/11/05 08:20:35;;;;;;;0.65;0.20;;;11.80;99.90;;;;;;5006019;28;20478;-90
2023/11/05 08:23:01;;;;;;;0.90;0.10;;;11.80;99.90;;;;;;5017485;28;20076;-90
2023/11/05 08:25:26;;;;;;;0.57;0.40;;;11.80;99.90;;;;;;5015880;28;20462;-88
2023/11/05 08:27:54;;;;;;;0.57;0.10;;;11.80;99.90;;;;;;5016154;28;20037;-88
2023/11/05 08:30:23;;;;;;;0.50;0.10;;;11.90;99.90;;;;;;5017300;28;20026;-89
2023/11/05 08:32:52;;;;;;;0.30;0.20;;;11.90;99.90;;;;;;5016135;28;20021;-88
2023/11/05 08:35:21;;;;;;;0.65;0.20;;;11.90;99.90;;;;;;5019224;28;20025;-89
2023/11/05 08:37:47;;;;;;;1.38;0.10;;;12.00;99.90;;;;;;5007188;28;20053;-90
2023/11/05 08:40:15;;;;;;;0.32;0.05;;;12.00;99.90;;;;;;5004035;28;20049;-91
2023/11/05 08:42:42;;;;;;;1.05;0.17;;;12.00;99.90;;;;;;5008569;28;20061;-89
2023/11/05 08:45:08;;;;;;;1.92;0.10;;;12.00;99.90;;;;;;5007359;28;20053;-89
2023/11/05 08:47:35;;;;;;;1.38;0.17;;;12.10;99.90;;;;;;5007655;28;20028;-91
2023/11/05 08:50:04;;;;;;;1.80;0.28;;;12.10;99.90;;;;;;5012213;28;20026;-91
2023/11/05 08:52:31;;;;;;;1.05;0.25;;;12.10;99.90;;;;;;5007963;28;20030;-90
2023/11/05 08:54:59;;;;;;;0.90;0.13;;;12.20;99.90;;;;;;5008025;28;20108;-90
2023/11/05 08:57:25;;;;;;;0.88;0.10;;;12.20;99.90;;;;;;5018632;28;20022;-92
2023/11/05 08:59:50;;;;;;;1.02;0.28;;;12.30;99.90;;;;;;5036301;28;20082;-89
2023/11/05 09:02:16;;;;;;;0.20;0.00;;;12.40;99.90;;;;;;5018759;28;20037;-89
2023/11/05 09:04:42;;;;;;;0.70;0.20;;;12.40;99.90;;;;;;5018187;28;20025;-89
2023/11/05 09:07:10;;;;;;;0.70;0.20;;;12.40;99.90;;;;;;5018676;28;20025;-89
2023/11/05 09:09:37;;;;;;;0.30;0.10;;;12.50;99.90;;;;;;5035629;28;20030;-89
2023/11/05 09:12:03;;;;;;;3.35;0.25;;;12.60;99.90;;;;;;5018458;28;20114;-89
2023/11/05 09:14:29;;;;;;;0.50;0.10;;;12.50;99.90;;;;;;5035624;28;20025;-90
2023/11/05 09:16:55;;;;;;;0.47;0.10;;;12.50;99.90;;;;;;5036644;28;20351;-90
2023/11/05 09:19:20;;;;;;;0.75;0.10;;;12.50;99.90;;;;;;5036425;28;20037;-91
2023/11/05 09:21:46;;;;;;;0.57;0.10;;;12.50;99.90;;;;;;5018545;28;20036;-92
2023/11/05 09:24:12;;;;;;;0.50;0.00;;;12.50;99.90;;;;;;5035802;28;20083;-90
2023/11/05 09:26:37;;;;;;;0.52;0.10;;;12.40;99.90;;;;;;5017872;28;20033;-91
2023/11/05 09:29:06;;;;;;;1.65;0.20;;;12.40;99.90;;;;;;5017905;28;20026;-92
2023/11/05 09:31:32;;;;;;;0.10;0.03;;;12.40;99.90;;;;;;5013218;28;20049;-90
2023/11/05 09:33:59;;;;;;;1.00;0.10;;;12.40;99.90;;;;;;5015578;28;20026;-91
2023/11/05 09:36:27;;;;;;;0.20;0.10;;;12.50;99.90;;;;;;5014578;28;20025;-91
2023/11/05 09:38:54;;;;;;;0.95;0.10;;;12.50;99.90;;;;;;5011288;28;20030;-89
2023/11/05 09:41:21;;;;;;;2.10;0.10;;;12.50;99.90;;;;;;5004957;28;20041;-89
2023/11/05 09:43:52;;;;;;;2.83;0.10;;;12.60;99.90;;;;;;5008035;28;20025;-87
2023/11/05 09:46:18;;;;;;;0.65;0.10;;;12.60;99.90;;;;;;5006516;28;20145;-89
2023/11/05 09:48:43;;;;;;;0.17;0.10;;;12.60;99.90;;;;;;5014239;28;20068;-90
2023/11/05 09:51:11;;;;;;;0.63;0.10;;;12.70;99.90;;;;;;5001759;28;20363;-91
2023/11/05 09:53:47;;;;;;;0.25;0.13;;;12.70;99.90;;;;;;5010380;28;20026;-93
2023/11/05 09:56:15;;;;;;;0.73;0.10;;;12.70;99.90;;;;;;5013272;28;20526;-94
2023/11/05 09:58:43;;;;;;;1.55;0.30;;;12.80;99.90;;;;;;5013895;28;20117;-91
2023/11/05 10:01:09;;;;;;;0.50;0.08;;;12.80;99.90;;;;;;5014037;28;20406;-93
2023/11/05 10:03:35;;;;;;;2.20;0.20;;;12.80;99.90;;;;;;5013481;28;20026;-93
2023/11/05 10:06:03;;;;;;;0.60;0.20;;;12.70;99.90;;;;;;4995639;28;20025;-92
2023/11/05 10:08:33;;;;;;;0.63;0.20;;;12.70;99.90;;;;;;5002851;28;20034;-91
2023/11/05 10:11:01;;;;;;;1.45;0.20;;;12.60;99.90;;;;;;5012967;28;20042;-89
2023/11/05 10:13:31;;;;;;;0.30;0.20;;;12.60;99.90;;;;;;5016431;28;20033;-91
2023/11/05 10:16:00;;;;;;;0.43;0.10;;;12.50;99.90;;;;;;5023768;28;20030;-91
2023/11/05 10:18:35;;;;;;;0.10;0.10;;;12.50;99.90;;;;;;5020388;28;20034;-92
2023/11/05 10:21:03;;;;;;;0.55;0.15;;;12.50;99.90;;;;;;5008372;28;20395;-90
2023/11/05 10:23:29;;;;;;;0.55;0.10;;;12.50;99.90;;;;;;5018794;28;20025;-91
2023/11/05 10:25:54;;;;;;;0.93;0.20;;;12.50;99.90;;;;;;4996690;28;20027;-94
2023/11/05 10:28:21;;;;;;;0.38;0.10;;;12.50;99.90;;;;;;5001093;28;20069;-86
2023/11/05 10:30:52;;;;;;;0.30;0.20;;;12.60;99.90;;;;;;5008763;28;20491;-86
2023/11/05 10:33:18;;;;;;;1.05;0.20;;;12.60;99.90;;;;;;5008299;28;20114;-85
2023/11/05 10:35:44;;;;;;;1.80;0.50;;;12.50;99.90;;;;;;5000076;28;20013;-85
2023/11/05 10:38:18;;;;;;;0.75;0.20;;;12.50;99.90;;;;;;5001866;28;20451;-85
2023/11/05 10:40:45;;;;;;;2.55;0.20;;;12.40;99.90;;;;;;4999386;28;20088;-86
2023/11/05 10:43:11;;;;;;;0.30;0.20;;;12.30;99.90;;;;;;4998935;28;20057;-85
2023/11/05 10:45:38;;;;;;;0.38;0.10;;;12.30;99.90;;;;;;5005420;28;20050;-84
2023/11/05 10:48:06;;;;;;;0.95;0.17;;;12.30;99.90;;;;;;5000802;28;20046;-83
2023/11/05 10:50:33;;;;;;;0.80;0.20;;;12.20;99.90;;;;;;5013472;28;20104;-86
2023/11/05 10:53:04;;;;;;;2.30;0.20;;;12.20;99.90;;;;;;5005576;28;20108;-86
2023/11/05 10:55:39;;;;;;;0.50;0.20;;;12.20;99.90;;;;;;5010274;28;20050;-88
2023/11/05 10:58:11;;;;;;;1.33;0.20;;;12.20;99.90;;;;;;4994655;28;20085;-87
2023/11/05 11:00:44;;;;;;;0.65;0.20;;;12.20;99.90;;;;;;5004289;28;20030;-90
2023/11/05 11:03:12;;;;;;;1.20;0.15;;;12.30;99.90;;;;;;5003788;28;20026;-89
2023/11/05 11:05:43;;;;;;;0.22;0.13;;;12.40;99.90;;;;;;5009060;28;20025;-93
2023/11/05 11:08:22;;;;;;;2.38;0.32;;;12.40;99.90;;;;;;4998036;28;20033;-92
2023/11/05 11:14:24;;;;;;;0.77;0.10;;;12.40;99.90;;;;;;4936762;29;20031;-94
2023/11/05 11:16:50;;;;;;;0.93;0.10;;;12.40;99.90;;;;;;4932058;29;20500;-90
2023/11/05 11:19:25;;;;;;;0.10;0.10;;;12.40;99.90;;;;;;4918793;29;20031;-93
2023/11/05 11:21:57;;;;;;;0.47;0.20;;;12.40;99.90;;;;;;4936537;29;20395;-91
2023/11/05 11:24:38;;;;;;;0.40;0.10;;;12.50;99.90;;;;;;4934242;29;20036;-86
2023/11/05 11:27:05;;;;;;;0.57;0.10;;;12.60;99.90;;;;;;4942484;29;20040;-86
2023/11/05 11:29:33;;;;;;;1.23;0.43;;;12.60;99.90;;;;;;4921453;29;20025;-87
2023/11/05 11:32:00;;;;;;;1.15;0.40;;;12.70;99.90;;;;;;4939844;29;20052;-87
2023/11/05 11:34:26;;;;;;;0.68;0.30;;;12.70;99.90;;;;;;4924874;29;20031;-88
2023/11/05 11:36:58;;;;;;;1.05;0.10;;;12.70;99.90;;;;;;4935563;29;20039;-89
2023/11/05 11:39:27;;;;;;;1.55;0.17;;;12.80;99.90;;;;;;4933700;29;20114;-95
2023/11/05 11:41:53;;;;;;;0.20;0.10;;;12.80;99.90;;;;;;4933137;29;20094;-91
2023/11/05 11:44:19;;;;;;;0.75;0.20;;;12.80;99.90;;;;;;4931309;29;20042;-87
2023/11/05 11:46:44;;;;;;;0.45;0.10;;;12.80;99.90;;;;;;4917547;29;20516;-86
2023/11/05 11:49:13;;;;;;;0.50;0.13;;;12.80;99.90;;;;;;4938038;29;20158;-91
2023/11/05 11:51:39;;;;;;;0.20;0.17;;;12.90;99.90;;;;;;4993030;28;20038;-86
2023/11/05 11:54:06;;;;;;;0.68;0.17;;;12.90;99.90;;;;;;5014569;28;20382;-88
2023/11/05 11:56:32;;;;;;;0.85;0.20;;;12.90;99.90;;;;;;4997416;28;20467;-88
2023/11/05 11:59:05;;;;;;;1.75;0.10;;;13.00;99.90;;;;;;5012574;28;20034;-90
2023/11/05 12:01:33;;;;;;;1.67;0.03;;;13.10;99.90;;;;;;5000084;28;20026;-88
2023/11/05 12:03:59;;;;;;;0.85;0.10;;;13.20;99.90;;;;;;5012446;28;20055;-89
2023/11/05 12:06:27;;;;;;;0.88;0.10;;;13.30;99.90;;;;;;5005116;28;20114;-90
2023/11/05 12:08:54;;;;;;;0.77;0.20;;;13.30;99.90;;;;;;5011795;28;20032;-87
2023/11/05 12:11:22;;;;;;;0.40;0.00;;;13.30;99.90;;;;;;5006264;28;20129;-88
2023/11/05 12:13:48;;;;;;;0.90;0.10;;;13.30;99.90;;;;;;5010835;28;20026;-88
2023/11/05 12:16:18;;;;;;;0.70;0.13;;;13.30;99.90;;;;;;5011334;28;20025;-87
2023/11/05 12:18:45;;;;;;;2.75;0.40;;;13.40;99.90;;;;;;5010562;28;20028;-86
2023/11/05 12:21:13;;;;;;;0.52;0.15;;;13.40;99.90;;;;;;5006207;28;20066;-87
2023/11/05 12:23:40;;;;;;;0.98;0.10;;;13.30;99.90;;;;;;5007751;28;20037;-86
2023/11/05 12:26:08;;;;;;;1.17;0.00;;;13.40;99.90;;;;;;5006376;28;20046;-87
2023/11/05 12:28:34;;;;;;;0.40;0.10;;;13.40;99.90;;;;;;5003941;28;20054;-87
2023/11/05 12:31:05;;;;;;;0.60;0.00;;;13.40;99.90;;;;;;5011108;28;20065;-87
2023/11/05 12:33:35;;;;;;;0.95;0.10;;;13.40;99.90;;;;;;5016358;28;20025;-87
2023/11/05 12:36:01;;;;;;;0.98;0.20;;;13.50;99.90;;;;;;5007467;28;20493;-89
2023/11/05 12:38:30;;;;;;;0.38;0.10;;;13.40;99.90;;;;;;5014936;28;20118;-89
2023/11/05 12:40:55;;;;;;;0.35;0.00;;;13.50;99.90;;;;;;5017446;28;20029;-90
2023/11/05 12:43:23;;;;;;;0.25;0.10;;;13.60;99.90;;;;;;5004750;28;20029;-88
2023/11/05 12:45:55;;;;;;;1.10;0.10;;;13.60;99.90;;;;;;5031906;28;20105;-89
2023/11/05 12:48:21;;;;;;;0.05;0.00;;;13.60;99.90;;;;;;5004897;28;20030;-89